createdAt,value
2022-11-26T00:04:46.532Z,0.61
2022-11-26T00:09:49.800Z,0.65
2022-11-26T00:14:52.611Z,0.73
2022-11-26T00:19:55.077Z,0.80
2022-11-26T00:24:58.107Z,0.85
2022-11-26T00:30:00.710Z,0.87
2022-11-26T00:35:03.357Z,0.88
2022-11-26T00:40:06.710Z,0.91
2022-11-26T00:45:16.003Z,0.94
2022-11-26T00:50:21.532Z,0.99
2022-11-26T00:55:45.232Z,0.97
2022-11-26T01:00:48.235Z,0.92
2022-11-26T01:05:53.310Z,0.87
2022-11-26T01:10:56.073Z,0.86
2022-11-26T01:16:01.347Z,0.90
2022-11-26T01:21:04.026Z,0.87
2022-11-26T01:26:07.063Z,0.91
2022-11-26T01:31:14.584Z,0.94
2022-11-26T01:36:18.039Z,0.98
2022-11-26T01:41:26.552Z,0.97
2022-11-26T01:46:32.862Z,0.98
2022-11-26T01:51:35.488Z,1.02
2022-11-26T01:56:44.004Z,1.03
2022-11-26T02:01:49.285Z,1.01
2022-11-26T02:06:55.541Z,0.98
2022-11-26T02:11:58.317Z,0.97
2022-11-26T02:17:03.742Z,0.97
2022-11-26T02:22:29.077Z,0.99
2022-11-26T02:27:50.625Z,0.99
2022-11-26T02:33:06.048Z,0.99
2022-11-26T02:38:31.078Z,1.00
2022-11-26T02:43:34.940Z,0.91
2022-11-26T02:48:45.038Z,0.84
2022-11-26T02:53:50.455Z,0.80
2022-11-26T02:58:55.451Z,0.81
2022-11-26T03:04:05.767Z,0.80
2022-11-26T03:09:08.792Z,0.81
2022-11-26T03:14:11.279Z,0.80
2022-11-26T03:19:13.770Z,0.84
2022-11-26T03:24:16.268Z,0.90
2022-11-26T03:29:18.800Z,0.93
2022-11-26T03:34:21.508Z,0.94
2022-11-26T03:39:24.038Z,1.00
2022-11-26T03:44:26.526Z,1.03
2022-11-26T03:49:29.043Z,1.08
2022-11-26T03:54:31.562Z,1.08
2022-11-26T03:59:34.055Z,1.03
2022-11-26T04:04:36.938Z,0.99
2022-11-26T04:09:39.687Z,0.93
2022-11-26T04:14:44.640Z,0.90
2022-11-26T04:19:47.197Z,0.86
2022-11-26T04:24:49.690Z,0.81
2022-11-26T04:29:52.319Z,0.76
2022-11-26T04:34:56.949Z,0.71
2022-11-26T04:39:59.521Z,0.70
2022-11-26T04:45:02.230Z,0.70
2022-11-26T04:50:05.592Z,0.72
2022-11-26T04:55:08.517Z,0.77
2022-11-26T05:00:11.780Z,0.83
2022-11-26T05:05:14.352Z,0.84
2022-11-26T05:10:17.022Z,0.85
2022-11-26T05:15:19.570Z,0.85
2022-11-26T05:20:24.197Z,0.82
2022-11-26T05:25:26.666Z,0.80
2022-11-26T05:30:29.199Z,0.76
2022-11-26T05:35:31.716Z,0.73
2022-11-26T05:40:34.221Z,0.67
2022-11-26T05:45:36.829Z,0.66
2022-11-26T05:50:39.449Z,0.67
2022-11-26T05:55:42.220Z,0.72
2022-11-26T06:00:44.741Z,0.80
2022-11-26T06:05:47.384Z,0.84
2022-11-26T06:10:50.060Z,0.85
2022-11-26T06:15:53.130Z,0.87
2022-11-26T06:21:00.477Z,0.89
2022-11-26T06:26:08.319Z,0.91
2022-11-26T06:31:11.043Z,0.89
2022-11-26T06:36:13.661Z,0.91
2022-11-26T06:41:16.680Z,0.96
2022-11-26T06:46:19.246Z,1.01
2022-11-26T06:51:28.877Z,0.96
2022-11-26T06:56:31.510Z,0.92
2022-11-26T07:01:34.114Z,0.90
2022-11-26T07:06:36.735Z,0.91
2022-11-26T07:11:40.562Z,0.99
2022-11-26T07:16:43.095Z,1.04
2022-11-26T07:21:45.544Z,1.09
2022-11-26T07:26:48.080Z,1.13
2022-11-26T07:31:50.573Z,1.20
2022-11-26T07:36:57.846Z,1.29
2022-11-26T07:42:00.898Z,1.36
2022-11-26T07:47:04.282Z,1.37
2022-11-26T07:52:06.786Z,1.43
2022-11-26T07:57:10.756Z,1.40
2022-11-26T08:02:17.484Z,1.48
2022-11-26T08:07:26.068Z,1.56
2022-11-26T08:12:31.796Z,1.69
2022-11-26T08:17:34.297Z,1.80
2022-11-26T08:22:36.796Z,1.89
2022-11-26T08:27:39.339Z,1.93
2022-11-26T08:32:41.944Z,2.02
2022-11-26T08:37:44.386Z,2.04
2022-11-26T08:42:47.015Z,2.07
2022-11-26T08:47:49.918Z,2.11
2022-11-26T08:52:52.384Z,2.10
2022-11-26T08:57:55.076Z,2.05
2022-11-26T09:02:57.575Z,2.01
2022-11-26T09:12:03.522Z,2.17
2022-11-26T09:17:07.847Z,2.23
2022-11-26T09:22:10.299Z,2.18
2022-11-26T09:27:12.787Z,2.15
2022-11-26T09:32:24.506Z,2.10
2022-11-26T09:37:30.576Z,2.13
2022-11-26T09:42:54.307Z,2.22
2022-11-26T09:47:57.695Z,2.31
2022-11-26T09:53:11.295Z,2.38
2022-11-26T09:58:22.228Z,2.45
2022-11-26T10:03:29.938Z,2.55
2022-11-26T10:08:45.394Z,2.64
2022-11-26T10:14:04.192Z,2.70
2022-11-26T10:19:12.092Z,2.71
2022-11-26T10:24:28.459Z,2.66
2022-11-26T10:29:38.608Z,2.63
2022-11-26T10:34:59.094Z,2.63
2022-11-26T10:40:07.462Z,2.63
2022-11-26T10:45:16.159Z,2.61
2022-11-26T10:55:46.398Z,2.63
2022-11-26T11:00:48.935Z,2.64
2022-11-26T11:05:52.050Z,2.61
2022-11-26T11:10:57.638Z,2.55
2022-11-26T11:16:02.567Z,2.48
2022-11-26T11:22:15.246Z,2.44
2022-11-26T11:27:24.644Z,2.35
2022-11-26T11:32:36.527Z,2.32
2022-11-26T11:37:49.294Z,2.30
2022-11-26T11:42:57.841Z,2.35
2022-11-26T11:48:19.837Z,2.40
2022-11-26T11:53:34.838Z,2.35
2022-11-26T11:58:45.615Z,2.31
2022-11-26T12:03:51.221Z,2.25
2022-11-26T12:08:59.856Z,2.15
2022-11-26T12:14:12.454Z,2.07
2022-11-26T12:19:35.816Z,2.02
2022-11-26T12:24:48.142Z,2.00
2022-11-26T12:29:56.208Z,1.97
2022-11-26T12:35:04.918Z,1.90
2022-11-26T12:40:13.432Z,1.89
2022-11-26T12:45:27.031Z,1.83
2022-11-26T12:50:42.083Z,1.77
2022-11-26T12:55:55.290Z,1.70
2022-11-26T13:00:58.650Z,1.68
2022-11-26T13:06:06.214Z,1.66
2022-11-26T13:11:15.804Z,1.70
2022-11-26T13:16:26.482Z,1.73
2022-11-26T13:21:31.970Z,1.73
2022-11-26T13:26:44.848Z,1.68
2022-11-26T13:31:48.652Z,1.60
2022-11-26T13:37:09.243Z,1.63
2022-11-26T13:42:26.015Z,1.63
2022-11-26T13:47:33.634Z,1.59
2022-11-26T13:52:39.054Z,1.57
2022-11-26T13:57:52.350Z,1.55
2022-11-26T14:02:55.906Z,1.51
2022-11-26T14:08:21.338Z,1.47
2022-11-26T14:13:23.819Z,1.43
2022-11-26T14:18:46.524Z,1.43
2022-11-26T14:23:50.345Z,1.44
2022-11-26T14:36:22.300Z,1.35
2022-11-26T14:41:24.769Z,1.38
2022-11-26T14:46:27.922Z,1.46
2022-11-26T14:51:32.515Z,1.52
2022-11-26T14:56:41.814Z,1.53
2022-11-26T15:01:47.849Z,1.50
2022-11-26T15:06:50.895Z,1.46
2022-11-26T15:11:56.263Z,1.33
2022-11-26T15:17:01.376Z,1.20
2022-11-26T15:22:08.083Z,1.08
2022-11-26T15:27:16.723Z,0.93
2022-11-26T15:32:25.738Z,0.88
2022-11-26T15:37:28.469Z,0.88
2022-11-26T15:42:32.273Z,0.90
2022-11-26T15:47:34.852Z,0.87
2022-11-26T15:52:37.460Z,0.88
2022-11-26T15:57:42.031Z,0.94
2022-11-26T16:02:47.059Z,0.96
2022-11-26T16:07:55.790Z,0.97
2022-11-26T16:13:04.394Z,1.02
2022-11-26T16:18:16.159Z,1.10
2022-11-26T16:23:24.197Z,1.17
2022-11-26T16:28:26.670Z,1.15
2022-11-26T16:33:31.919Z,1.16
2022-11-26T16:38:34.442Z,1.16
2022-11-26T16:43:37.047Z,1.12
2022-11-26T16:48:44.049Z,1.09
2022-11-26T16:53:47.045Z,1.12
2022-11-26T16:58:50.972Z,1.18
2022-11-26T17:03:53.717Z,1.27
2022-11-26T17:08:57.075Z,1.27
2022-11-26T17:13:59.973Z,1.17
2022-11-26T17:19:02.540Z,1.16
2022-11-26T17:24:05.299Z,1.23
2022-11-26T17:29:12.777Z,1.27
2022-11-26T17:34:15.301Z,1.32
2022-11-26T17:39:17.770Z,1.37
2022-11-26T17:44:21.609Z,1.39
2022-11-26T17:49:26.376Z,1.36
2022-11-26T17:54:28.915Z,1.31
2022-11-26T17:59:33.820Z,1.28
2022-11-26T18:04:37.034Z,1.27
2022-11-26T18:09:41.627Z,1.19
2022-11-26T18:14:44.319Z,1.14
2022-11-26T18:19:47.453Z,1.14
2022-11-26T18:24:56.993Z,1.13
2022-11-26T18:30:00.300Z,1.12
2022-11-26T18:35:03.315Z,1.16
2022-11-26T18:40:08.763Z,1.16
2022-11-26T18:45:14.846Z,1.14
2022-11-26T18:50:17.498Z,1.18
2022-11-26T18:55:20.077Z,1.18
2022-11-26T19:00:22.767Z,1.19
2022-11-26T19:05:25.235Z,1.23
2022-11-26T19:10:27.899Z,1.29
2022-11-26T19:15:30.786Z,1.31
2022-11-26T19:20:33.443Z,1.34
2022-11-26T19:25:36.084Z,1.37
2022-11-26T19:30:38.651Z,1.41
2022-11-26T19:35:41.227Z,1.45
2022-11-26T19:40:43.849Z,1.50
2022-11-26T19:45:46.650Z,1.50
2022-11-26T19:50:55.076Z,1.51
2022-11-26T19:55:59.886Z,1.48
2022-11-26T20:01:06.128Z,1.48
2022-11-26T20:06:13.857Z,1.53
2022-11-26T20:11:17.611Z,1.55
2022-11-26T20:16:24.050Z,1.56
2022-11-26T20:21:30.881Z,1.62
2022-11-26T20:26:37.625Z,1.67
2022-11-26T20:31:46.465Z,1.66
2022-11-26T20:36:49.511Z,1.69
2022-11-26T20:41:52.084Z,1.72
2022-11-26T20:46:56.869Z,1.76
2022-11-26T20:51:59.359Z,1.78
2022-11-26T20:57:01.877Z,1.76
2022-11-26T21:02:04.505Z,1.73
2022-11-26T21:07:08.286Z,1.72
2022-11-26T21:12:10.802Z,1.71
2022-11-26T21:17:13.927Z,1.67
2022-11-26T21:22:16.562Z,1.66
2022-11-26T21:27:19.028Z,1.64
2022-11-26T21:32:21.981Z,1.58
2022-11-26T21:37:24.857Z,1.54
2022-11-26T21:42:27.364Z,1.50
2022-11-26T21:47:29.850Z,1.47
2022-11-26T21:52:32.352Z,1.46
2022-11-26T21:57:35.027Z,1.46
2022-11-26T22:02:37.643Z,1.48
2022-11-26T22:07:40.459Z,1.49
2022-11-26T22:12:45.606Z,1.45
2022-11-26T22:17:48.095Z,1.43
2022-11-26T22:22:50.608Z,1.45
2022-11-26T22:27:53.082Z,1.46
2022-11-26T22:32:56.012Z,1.47
2022-11-26T22:37:58.568Z,1.45
2022-11-26T22:43:01.370Z,1.44
2022-11-26T22:48:04.282Z,1.42
2022-11-26T22:53:06.844Z,1.40
2022-11-26T22:58:09.408Z,1.41
2022-11-26T23:03:12.025Z,1.39
2022-11-26T23:08:15.822Z,1.39
2022-11-26T23:13:18.551Z,1.39
2022-11-26T23:18:21.360Z,1.37
2022-11-26T23:23:23.855Z,1.38
2022-11-26T23:28:26.439Z,1.42
2022-11-26T23:33:29.391Z,1.46
2022-11-26T23:38:32.010Z,1.47
2022-11-26T23:43:36.553Z,1.47
2022-11-26T23:48:39.095Z,1.47
2022-11-26T23:53:43.354Z,1.54
2022-11-26T23:58:49.784Z,1.60
